sensor_id;sensor_type;location;lat;lon;timestamp;P1;durP1;ratioP1;P2;durP2;ratioP2
68379;SDS011;57711;53.196;19.638;2023-02-04T00:00:18;19.10;;;10.70;;
68379;SDS011;57711;53.196;19.638;2023-02-04T00:03:06;19.90;;;9.40;;
68379;SDS011;57711;53.196;19.638;2023-02-04T00:05:34;18.70;;;10.10;;
68379;SDS011;57711;53.196;19.638;2023-02-04T00:08:01;12.10;;;8.20;;
68379;SDS011;57711;53.196;19.638;2023-02-04T00:10:31;14.10;;;8.10;;
68379;SDS011;57711;53.196;19.638;2023-02-04T00:12:59;23.80;;;11.70;;
68379;SDS011;57711;53.196;19.638;2023-02-04T00:15:26;18.50;;;10.80;;
68379;SDS011;57711;53.196;19.638;2023-02-04T00:17:53;16.40;;;9.50;;
68379;SDS011;57711;53.196;19.638;2023-02-04T00:20:21;15.70;;;10.10;;
68379;SDS011;57711;53.196;19.638;2023-02-04T00:22:48;16.00;;;9.00;;
68379;SDS011;57711;53.196;19.638;2023-02-04T00:25:17;13.40;;;8.70;;
68379;SDS011;57711;53.196;19.638;2023-02-04T00:27:44;14.30;;;9.20;;
68379;SDS011;57711;53.196;19.638;2023-02-04T00:30:11;13.80;;;8.80;;
68379;SDS011;57711;53.196;19.638;2023-02-04T00:32:39;12.40;;;7.50;;
68379;SDS011;57711;53.196;19.638;2023-02-04T00:35:06;11.60;;;7.90;;
68379;SDS011;57711;53.196;19.638;2023-02-04T00:37:34;13.90;;;8.50;;
68379;SDS011;57711;53.196;19.638;2023-02-04T00:40:03;13.00;;;8.80;;
68379;SDS011;57711;53.196;19.638;2023-02-04T00:42:30;16.00;;;10.40;;
68379;SDS011;57711;53.196;19.638;2023-02-04T00:44:57;17.90;;;11.30;;
68379;SDS011;57711;53.196;19.638;2023-02-04T00:47:25;18.90;;;10.40;;
68379;SDS011;57711;53.196;19.638;2023-02-04T00:49:52;19.00;;;11.60;;
68379;SDS011;57711;53.196;19.638;2023-02-04T00:52:19;26.00;;;13.60;;
68379;SDS011;57711;53.196;19.638;2023-02-04T00:54:46;16.00;;;11.00;;
68379;SDS011;57711;53.196;19.638;2023-02-04T00:57:14;15.30;;;9.70;;
68379;SDS011;57711;53.196;19.638;2023-02-04T00:59:41;12.80;;;8.90;;
68379;SDS011;57711;53.196;19.638;2023-02-04T01:02:08;14.50;;;8.90;;
68379;SDS011;57711;53.196;19.638;2023-02-04T01:04:36;18.60;;;10.50;;
68379;SDS011;57711;53.196;19.638;2023-02-04T01:07:03;14.90;;;9.00;;
68379;SDS011;57711;53.196;19.638;2023-02-04T01:09:30;13.50;;;9.00;;
68379;SDS011;57711;53.196;19.638;2023-02-04T01:11:57;13.20;;;8.90;;
68379;SDS011;57711;53.196;19.638;2023-02-04T01:14:25;15.00;;;10.10;;
68379;SDS011;57711;53.196;19.638;2023-02-04T01:16:52;14.50;;;9.00;;
68379;SDS011;57711;53.196;19.638;2023-02-04T01:19:19;14.40;;;8.50;;
68379;SDS011;57711;53.196;19.638;2023-02-04T01:21:47;15.00;;;8.40;;
68379;SDS011;57711;53.196;19.638;2023-02-04T01:24:14;11.60;;;8.00;;
68379;SDS011;57711;53.196;19.638;2023-02-04T01:26:59;13.30;;;9.80;;
68379;SDS011;57711;53.196;19.638;2023-02-04T01:29:27;14.70;;;8.80;;
68379;SDS011;57711;53.196;19.638;2023-02-04T01:31:54;12.50;;;8.50;;
68379;SDS011;57711;53.196;19.638;2023-02-04T01:34:22;12.40;;;8.50;;
68379;SDS011;57711;53.196;19.638;2023-02-04T01:36:51;12.30;;;8.00;;
68379;SDS011;57711;53.196;19.638;2023-02-04T01:39:18;11.00;;;7.60;;
68379;SDS011;57711;53.196;19.638;2023-02-04T01:41:46;12.10;;;7.40;;
68379;SDS011;57711;53.196;19.638;2023-02-04T01:44:13;9.60;;;7.30;;
68379;SDS011;57711;53.196;19.638;2023-02-04T01:46:40;12.50;;;7.20;;
68379;SDS011;57711;53.196;19.638;2023-02-04T01:49:08;19.50;;;9.20;;
68379;SDS011;57711;53.196;19.638;2023-02-04T01:51:37;10.20;;;7.50;;
68379;SDS011;57711;53.196;19.638;2023-02-04T01:54:05;11.00;;;7.30;;
68379;SDS011;57711;53.196;19.638;2023-02-04T01:56:37;8.00;;;5.60;;
68379;SDS011;57711;53.196;19.638;2023-02-04T01:59:12;11.10;;;6.00;;
68379;SDS011;57711;53.196;19.638;2023-02-04T02:01:42;9.70;;;5.70;;
68379;SDS011;57711;53.196;19.638;2023-02-04T02:04:15;9.30;;;6.20;;
68379;SDS011;57711;53.196;19.638;2023-02-04T02:06:46;10.20;;;5.90;;
68379;SDS011;57711;53.196;19.638;2023-02-04T02:09:17;10.00;;;6.30;;
68379;SDS011;57711;53.196;19.638;2023-02-04T02:11:45;9.90;;;5.70;;
68379;SDS011;57711;53.196;19.638;2023-02-04T02:14:12;6.50;;;5.60;;
68379;SDS011;57711;53.196;19.638;2023-02-04T02:16:40;9.40;;;6.10;;
68379;SDS011;57711;53.196;19.638;2023-02-04T02:19:08;10.00;;;5.70;;
68379;SDS011;57711;53.196;19.638;2023-02-04T02:21:39;10.30;;;6.10;;
68379;SDS011;57711;53.196;19.638;2023-02-04T02:24:27;9.90;;;5.50;;
68379;SDS011;57711;53.196;19.638;2023-02-04T02:27:05;9.80;;;5.60;;
68379;SDS011;57711;53.196;19.638;2023-02-04T02:29:35;7.60;;;5.80;;
68379;SDS011;57711;53.196;19.638;2023-02-04T02:32:04;7.30;;;5.00;;
68379;SDS011;57711;53.196;19.638;2023-02-04T02:34:33;8.80;;;5.10;;
68379;SDS011;57711;53.196;19.638;2023-02-04T02:37:01;8.90;;;5.70;;
68379;SDS011;57711;53.196;19.638;2023-02-04T02:39:29;9.30;;;5.50;;
68379;SDS011;57711;53.196;19.638;2023-02-04T02:41:58;8.20;;;5.50;;
68379;SDS011;57711;53.196;19.638;2023-02-04T02:44:26;9.90;;;6.40;;
68379;SDS011;57711;53.196;19.638;2023-02-04T02:46:56;8.90;;;5.90;;
68379;SDS011;57711;53.196;19.638;2023-02-04T02:49:24;10.70;;;5.50;;
68379;SDS011;57711;53.196;19.638;2023-02-04T02:51:52;9.40;;;5.60;;
68379;SDS011;57711;53.196;19.638;2023-02-04T02:54:27;9.90;;;5.70;;
68379;SDS011;57711;53.196;19.638;2023-02-04T02:56:59;7.60;;;5.30;;
68379;SDS011;57711;53.196;19.638;2023-02-04T02:59:26;7.30;;;4.90;;
68379;SDS011;57711;53.196;19.638;2023-02-04T03:01:57;7.60;;;4.50;;
68379;SDS011;57711;53.196;19.638;2023-02-04T03:04:29;7.60;;;4.60;;
68379;SDS011;57711;53.196;19.638;2023-02-04T03:07:01;9.00;;;5.30;;
68379;SDS011;57711;53.196;19.638;2023-02-04T03:09:29;7.50;;;4.50;;
68379;SDS011;57711;53.196;19.638;2023-02-04T03:11:56;8.10;;;4.50;;
68379;SDS011;57711;53.196;19.638;2023-02-04T03:14:23;7.00;;;5.40;;
68379;SDS011;57711;53.196;19.638;2023-02-04T03:16:53;10.80;;;6.10;;
68379;SDS011;57711;53.196;19.638;2023-02-04T03:19:22;7.90;;;5.90;;
68379;SDS011;57711;53.196;19.638;2023-02-04T03:21:52;7.40;;;4.90;;
68379;SDS011;57711;53.196;19.638;2023-02-04T03:24:22;9.70;;;5.20;;
68379;SDS011;57711;53.196;19.638;2023-02-04T03:26:50;9.50;;;4.90;;
68379;SDS011;57711;53.196;19.638;2023-02-04T03:29:17;9.00;;;4.90;;
68379;SDS011;57711;53.196;19.638;2023-02-04T03:31:45;6.10;;;4.50;;
68379;SDS011;57711;53.196;19.638;2023-02-04T03:34:13;7.10;;;4.50;;
68379;SDS011;57711;53.196;19.638;2023-02-04T03:36:40;8.10;;;4.80;;
68379;SDS011;57711;53.196;19.638;2023-02-04T03:39:07;10.00;;;5.00;;
68379;SDS011;57711;53.196;19.638;2023-02-04T03:41:34;6.50;;;4.50;;
68379;SDS011;57711;53.196;19.638;2023-02-04T03:44:01;8.40;;;4.40;;
68379;SDS011;57711;53.196;19.638;2023-02-04T03:46:29;8.70;;;4.70;;
68379;SDS011;57711;53.196;19.638;2023-02-04T03:48:56;6.80;;;4.40;;
68379;SDS011;57711;53.196;19.638;2023-02-04T03:51:23;6.80;;;4.50;;
68379;SDS011;57711;53.196;19.638;2023-02-04T03:53:51;7.80;;;5.40;;
68379;SDS011;57711;53.196;19.638;2023-02-04T03:56:18;6.70;;;4.10;;
68379;SDS011;57711;53.196;19.638;2023-02-04T03:58:45;6.20;;;3.40;;
68379;SDS011;57711;53.196;19.638;2023-02-04T04:01:12;5.60;;;3.90;;
68379;SDS011;57711;53.196;19.638;2023-02-04T04:03:40;6.10;;;3.50;;
68379;SDS011;57711;53.196;19.638;2023-02-04T04:06:07;7.80;;;3.90;;
68379;SDS011;57711;53.196;19.638;2023-02-04T04:08:36;8.30;;;4.00;;
68379;SDS011;57711;53.196;19.638;2023-02-04T04:11:04;9.50;;;4.40;;
68379;SDS011;57711;53.196;19.638;2023-02-04T04:13:31;6.00;;;4.20;;
68379;SDS011;57711;53.196;19.638;2023-02-04T04:15:58;6.10;;;3.50;;
68379;SDS011;57711;53.196;19.638;2023-02-04T04:18:26;4.90;;;3.40;;
68379;SDS011;57711;53.196;19.638;2023-02-04T04:20:53;10.00;;;5.50;;
68379;SDS011;57711;53.196;19.638;2023-02-04T04:23:20;5.50;;;3.30;;
68379;SDS011;57711;53.196;19.638;2023-02-04T04:25:47;5.90;;;3.20;;
68379;SDS011;57711;53.196;19.638;2023-02-04T04:28:15;4.20;;;2.70;;
68379;SDS011;57711;53.196;19.638;2023-02-04T04:30:43;3.80;;;2.70;;
68379;SDS011;57711;53.196;19.638;2023-02-04T04:33:11;6.20;;;3.20;;
68379;SDS011;57711;53.196;19.638;2023-02-04T04:35:38;7.00;;;3.40;;
68379;SDS011;57711;53.196;19.638;2023-02-04T04:38:05;6.50;;;3.40;;
68379;SDS011;57711;53.196;19.638;2023-02-04T04:40:32;5.60;;;3.70;;
68379;SDS011;57711;53.196;19.638;2023-02-04T04:43:00;7.30;;;4.10;;
68379;SDS011;57711;53.196;19.638;2023-02-04T04:45:27;7.50;;;4.40;;
68379;SDS011;57711;53.196;19.638;2023-02-04T04:47:54;7.50;;;4.40;;
68379;SDS011;57711;53.196;19.638;2023-02-04T04:50:21;6.20;;;3.80;;
68379;SDS011;57711;53.196;19.638;2023-02-04T04:52:49;5.80;;;3.30;;
68379;SDS011;57711;53.196;19.638;2023-02-04T04:55:16;5.90;;;4.30;;
68379;SDS011;57711;53.196;19.638;2023-02-04T04:57:43;8.90;;;6.00;;
68379;SDS011;57711;53.196;19.638;2023-02-04T05:00:14;15.30;;;7.60;;
68379;SDS011;57711;53.196;19.638;2023-02-04T05:02:43;11.20;;;6.90;;
68379;SDS011;57711;53.196;19.638;2023-02-04T05:05:10;5.80;;;3.80;;
68379;SDS011;57711;53.196;19.638;2023-02-04T05:07:39;5.50;;;2.80;;
68379;SDS011;57711;53.196;19.638;2023-02-04T05:10:06;5.50;;;2.90;;
68379;SDS011;57711;53.196;19.638;2023-02-04T05:12:33;4.70;;;3.00;;
68379;SDS011;57711;53.196;19.638;2023-02-04T05:15:01;4.70;;;2.80;;
68379;SDS011;57711;53.196;19.638;2023-02-04T05:17:29;4.80;;;2.80;;
68379;SDS011;57711;53.196;19.638;2023-02-04T05:19:56;6.00;;;3.10;;
68379;SDS011;57711;53.196;19.638;2023-02-04T05:22:23;15.90;;;11.00;;
68379;SDS011;57711;53.196;19.638;2023-02-04T05:24:50;7.60;;;4.70;;
68379;SDS011;57711;53.196;19.638;2023-02-04T05:27:18;7.80;;;4.80;;
68379;SDS011;57711;53.196;19.638;2023-02-04T05:29:45;6.90;;;3.30;;
68379;SDS011;57711;53.196;19.638;2023-02-04T05:32:12;7.00;;;3.50;;
68379;SDS011;57711;53.196;19.638;2023-02-04T05:34:39;4.10;;;2.80;;
68379;SDS011;57711;53.196;19.638;2023-02-04T05:37:06;6.80;;;3.70;;
68379;SDS011;57711;53.196;19.638;2023-02-04T05:39:33;10.20;;;5.30;;
68379;SDS011;57711;53.196;19.638;2023-02-04T05:42:01;19.60;;;9.30;;
68379;SDS011;57711;53.196;19.638;2023-02-04T05:44:28;17.20;;;10.30;;
68379;SDS011;57711;53.196;19.638;2023-02-04T05:46:55;16.40;;;9.60;;
68379;SDS011;57711;53.196;19.638;2023-02-04T05:49:22;13.20;;;7.20;;
68379;SDS011;57711;53.196;19.638;2023-02-04T05:51:50;13.70;;;9.90;;
68379;SDS011;57711;53.196;19.638;2023-02-04T05:54:17;25.40;;;12.30;;
68379;SDS011;57711;53.196;19.638;2023-02-04T05:56:46;25.10;;;17.00;;
68379;SDS011;57711;53.196;19.638;2023-02-04T05:59:13;41.20;;;25.00;;
68379;SDS011;57711;53.196;19.638;2023-02-04T06:01:40;41.90;;;25.90;;
68379;SDS011;57711;53.196;19.638;2023-02-04T06:04:08;42.00;;;23.60;;
68379;SDS011;57711;53.196;19.638;2023-02-04T06:06:35;59.00;;;31.90;;
68379;SDS011;57711;53.196;19.638;2023-02-04T06:09:02;46.30;;;28.70;;
68379;SDS011;57711;53.196;19.638;2023-02-04T06:11:29;122.90;;;63.10;;
68379;SDS011;57711;53.196;19.638;2023-02-04T06:13:57;158.20;;;81.40;;
68379;SDS011;57711;53.196;19.638;2023-02-04T06:16:24;99.10;;;48.60;;
68379;SDS011;57711;53.196;19.638;2023-02-04T06:18:51;73.60;;;32.10;;
68379;SDS011;57711;53.196;19.638;2023-02-04T06:21:19;54.40;;;24.40;;
68379;SDS011;57711;53.196;19.638;2023-02-04T06:23:46;61.80;;;24.10;;
68379;SDS011;57711;53.196;19.638;2023-02-04T06:26:13;69.70;;;25.90;;
68379;SDS011;57711;53.196;19.638;2023-02-04T06:28:41;86.00;;;34.20;;
68379;SDS011;57711;53.196;19.638;2023-02-04T06:31:08;110.70;;;43.30;;
68379;SDS011;57711;53.196;19.638;2023-02-04T06:33:35;80.40;;;31.00;;
68379;SDS011;57711;53.196;19.638;2023-02-04T06:36:03;54.00;;;24.80;;
68379;SDS011;57711;53.196;19.638;2023-02-04T06:38:30;47.50;;;21.60;;
68379;SDS011;57711;53.196;19.638;2023-02-04T06:40:58;36.30;;;17.30;;
68379;SDS011;57711;53.196;19.638;2023-02-04T06:43:25;28.60;;;14.40;;
68379;SDS011;57711;53.196;19.638;2023-02-04T06:45:53;40.90;;;19.80;;
68379;SDS011;57711;53.196;19.638;2023-02-04T06:48:21;49.60;;;23.10;;
68379;SDS011;57711;53.196;19.638;2023-02-04T06:50:48;45.60;;;19.70;;
68379;SDS011;57711;53.196;19.638;2023-02-04T06:53:15;53.20;;;24.00;;
68379;SDS011;57711;53.196;19.638;2023-02-04T06:55:42;34.70;;;17.00;;
68379;SDS011;57711;53.196;19.638;2023-02-04T06:58:09;82.00;;;32.60;;
68379;SDS011;57711;53.196;19.638;2023-02-04T07:00:37;81.40;;;34.20;;
68379;SDS011;57711;53.196;19.638;2023-02-04T07:03:04;79.40;;;33.20;;
68379;SDS011;57711;53.196;19.638;2023-02-04T07:05:33;76.60;;;33.40;;
68379;SDS011;57711;53.196;19.638;2023-02-04T07:08:00;60.70;;;27.70;;
68379;SDS011;57711;53.196;19.638;2023-02-04T07:10:27;62.50;;;28.00;;
68379;SDS011;57711;53.196;19.638;2023-02-04T07:12:55;52.60;;;26.50;;
68379;SDS011;57711;53.196;19.638;2023-02-04T07:15:23;36.90;;;17.90;;
68379;SDS011;57711;53.196;19.638;2023-02-04T07:17:50;46.10;;;22.60;;
68379;SDS011;57711;53.196;19.638;2023-02-04T07:20:18;62.90;;;28.70;;
68379;SDS011;57711;53.196;19.638;2023-02-04T07:22:46;54.80;;;26.50;;
68379;SDS011;57711;53.196;19.638;2023-02-04T07:25:13;54.30;;;24.90;;
68379;SDS011;57711;53.196;19.638;2023-02-04T07:27:41;52.50;;;28.30;;
68379;SDS011;57711;53.196;19.638;2023-02-04T07:30:09;77.00;;;36.80;;
68379;SDS011;57711;53.196;19.638;2023-02-04T07:32:37;56.60;;;27.70;;
68379;SDS011;57711;53.196;19.638;2023-02-04T07:35:04;56.70;;;27.10;;
68379;SDS011;57711;53.196;19.638;2023-02-04T07:37:31;79.10;;;34.70;;
68379;SDS011;57711;53.196;19.638;2023-02-04T07:39:59;78.50;;;34.50;;
68379;SDS011;57711;53.196;19.638;2023-02-04T07:42:26;82.30;;;34.60;;
68379;SDS011;57711;53.196;19.638;2023-02-04T07:44:59;114.40;;;45.30;;
68379;SDS011;57711;53.196;19.638;2023-02-04T07:47:26;103.10;;;43.40;;
68379;SDS011;57711;53.196;19.638;2023-02-04T07:49:54;107.30;;;45.70;;
68379;SDS011;57711;53.196;19.638;2023-02-04T07:52:23;75.90;;;33.70;;
68379;SDS011;57711;53.196;19.638;2023-02-04T07:54:50;73.80;;;35.80;;
68379;SDS011;57711;53.196;19.638;2023-02-04T07:57:18;61.30;;;26.40;;
68379;SDS011;57711;53.196;19.638;2023-02-04T07:59:46;62.90;;;24.70;;
68379;SDS011;57711;53.196;19.638;2023-02-04T08:02:13;46.80;;;19.70;;
68379;SDS011;57711;53.196;19.638;2023-02-04T08:04:41;76.30;;;30.00;;
68379;SDS011;57711;53.196;19.638;2023-02-04T08:07:08;104.80;;;36.90;;
68379;SDS011;57711;53.196;19.638;2023-02-04T08:09:35;60.40;;;21.20;;
68379;SDS011;57711;53.196;19.638;2023-02-04T08:12:02;38.30;;;14.10;;
68379;SDS011;57711;53.196;19.638;2023-02-04T08:14:30;102.10;;;29.50;;
68379;SDS011;57711;53.196;19.638;2023-02-04T08:16:57;66.00;;;23.50;;
68379;SDS011;57711;53.196;19.638;2023-02-04T08:19:24;39.30;;;19.60;;
68379;SDS011;57711;53.196;19.638;2023-02-04T08:21:51;18.70;;;10.00;;
68379;SDS011;57711;53.196;19.638;2023-02-04T08:24:19;34.20;;;19.70;;
68379;SDS011;57711;53.196;19.638;2023-02-04T08:26:46;9.40;;;5.90;;
68379;SDS011;57711;53.196;19.638;2023-02-04T08:29:13;16.10;;;7.90;;
68379;SDS011;57711;53.196;19.638;2023-02-04T08:31:41;15.70;;;8.10;;
68379;SDS011;57711;53.196;19.638;2023-02-04T08:34:08;11.90;;;6.60;;
68379;SDS011;57711;53.196;19.638;2023-02-04T08:36:35;11.40;;;6.20;;
68379;SDS011;57711;53.196;19.638;2023-02-04T08:39:02;11.40;;;4.90;;
68379;SDS011;57711;53.196;19.638;2023-02-04T08:41:30;8.40;;;4.00;;
68379;SDS011;57711;53.196;19.638;2023-02-04T08:43:59;8.00;;;4.40;;
68379;SDS011;57711;53.196;19.638;2023-02-04T08:46:26;12.60;;;4.90;;
68379;SDS011;57711;53.196;19.638;2023-02-04T08:48:53;8.30;;;4.20;;
68379;SDS011;57711;53.196;19.638;2023-02-04T08:51:21;8.80;;;4.60;;
68379;SDS011;57711;53.196;19.638;2023-02-04T08:53:48;7.90;;;3.90;;
68379;SDS011;57711;53.196;19.638;2023-02-04T08:56:15;9.20;;;3.70;;
68379;SDS011;57711;53.196;19.638;2023-02-04T08:58:44;7.10;;;3.70;;
68379;SDS011;57711;53.196;19.638;2023-02-04T09:01:12;10.30;;;4.80;;
68379;SDS011;57711;53.196;19.638;2023-02-04T09:03:40;7.20;;;4.30;;
68379;SDS011;57711;53.196;19.638;2023-02-04T09:06:07;10.20;;;4.30;;
68379;SDS011;57711;53.196;19.638;2023-02-04T09:08:34;6.60;;;3.10;;
68379;SDS011;57711;53.196;19.638;2023-02-04T09:11:01;5.60;;;2.60;;
68379;SDS011;57711;53.196;19.638;2023-02-04T09:13:30;5.10;;;3.40;;
68379;SDS011;57711;53.196;19.638;2023-02-04T09:15:58;9.50;;;3.90;;
68379;SDS011;57711;53.196;19.638;2023-02-04T09:18:25;11.20;;;5.50;;
68379;SDS011;57711;53.196;19.638;2023-02-04T09:20:53;17.20;;;7.10;;
68379;SDS011;57711;53.196;19.638;2023-02-04T09:23:20;16.80;;;8.00;;
68379;SDS011;57711;53.196;19.638;2023-02-04T09:25:48;17.00;;;7.80;;
68379;SDS011;57711;53.196;19.638;2023-02-04T09:28:16;18.80;;;8.80;;
68379;SDS011;57711;53.196;19.638;2023-02-04T09:30:44;15.40;;;7.80;;
68379;SDS011;57711;53.196;19.638;2023-02-04T09:33:13;12.50;;;6.10;;
68379;SDS011;57711;53.196;19.638;2023-02-04T09:35:43;8.70;;;4.70;;
68379;SDS011;57711;53.196;19.638;2023-02-04T09:38:10;10.80;;;5.20;;
68379;SDS011;57711;53.196;19.638;2023-02-04T09:40:41;8.90;;;4.50;;
68379;SDS011;57711;53.196;19.638;2023-02-04T09:43:11;6.90;;;3.40;;
68379;SDS011;57711;53.196;19.638;2023-02-04T09:45:42;6.70;;;3.00;;
68379;SDS011;57711;53.196;19.638;2023-02-04T09:48:10;14.40;;;7.50;;
68379;SDS011;57711;53.196;19.638;2023-02-04T09:50:39;6.50;;;3.50;;
68379;SDS011;57711;53.196;19.638;2023-02-04T09:53:08;47.00;;;23.70;;
68379;SDS011;57711;53.196;19.638;2023-02-04T09:55:40;16.60;;;7.60;;
68379;SDS011;57711;53.196;19.638;2023-02-04T09:58:13;20.70;;;8.80;;
68379;SDS011;57711;53.196;19.638;2023-02-04T10:00:46;32.40;;;10.10;;
68379;SDS011;57711;53.196;19.638;2023-02-04T10:03:18;18.60;;;8.50;;
68379;SDS011;57711;53.196;19.638;2023-02-04T10:05:49;20.50;;;11.00;;
68379;SDS011;57711;53.196;19.638;2023-02-04T10:08:24;54.90;;;24.70;;
68379;SDS011;57711;53.196;19.638;2023-02-04T10:10:54;9.20;;;4.70;;
68379;SDS011;57711;53.196;19.638;2023-02-04T10:13:30;12.50;;;6.00;;
68379;SDS011;57711;53.196;19.638;2023-02-04T10:16:00;9.20;;;5.10;;
68379;SDS011;57711;53.196;19.638;2023-02-04T10:18:34;8.60;;;5.10;;
68379;SDS011;57711;53.196;19.638;2023-02-04T10:21:21;10.50;;;5.00;;
68379;SDS011;57711;53.196;19.638;2023-02-04T10:23:57;18.60;;;8.70;;
68379;SDS011;57711;53.196;19.638;2023-02-04T10:26:28;22.70;;;9.80;;
68379;SDS011;57711;53.196;19.638;2023-02-04T10:28:58;10.30;;;5.30;;
68379;SDS011;57711;53.196;19.638;2023-02-04T10:31:34;21.70;;;8.70;;
68379;SDS011;57711;53.196;19.638;2023-02-04T10:36:46;19.40;;;7.00;;
68379;SDS011;57711;53.196;19.638;2023-02-04T10:39:16;19.50;;;9.20;;
68379;SDS011;57711;53.196;19.638;2023-02-04T10:41:46;10.30;;;4.10;;
68379;SDS011;57711;53.196;19.638;2023-02-04T10:44:19;21.70;;;10.90;;
68379;SDS011;57711;53.196;19.638;2023-02-04T10:46:58;16.40;;;10.00;;
68379;SDS011;57711;53.196;19.638;2023-02-04T10:49:31;18.20;;;10.00;;
68379;SDS011;57711;53.196;19.638;2023-02-04T10:51:59;48.30;;;16.10;;
68379;SDS011;57711;53.196;19.638;2023-02-04T10:54:30;23.80;;;10.70;;
68379;SDS011;57711;53.196;19.638;2023-02-04T10:59:55;17.70;;;11.90;;
68379;SDS011;57711;53.196;19.638;2023-02-04T11:05:05;21.10;;;11.50;;
68379;SDS011;57711;53.196;19.638;2023-02-04T11:07:40;42.10;;;21.80;;
68379;SDS011;57711;53.196;19.638;2023-02-04T11:10:12;96.50;;;43.70;;
68379;SDS011;57711;53.196;19.638;2023-02-04T11:12:44;114.70;;;46.30;;
68379;SDS011;57711;53.196;19.638;2023-02-04T11:20:48;73.40;;;32.40;;
68379;SDS011;57711;53.196;19.638;2023-02-04T11:26:08;122.80;;;45.20;;
68379;SDS011;57711;53.196;19.638;2023-02-04T11:33:48;60.50;;;30.40;;
68379;SDS011;57711;53.196;19.638;2023-02-04T11:36:16;39.90;;;22.00;;
68379;SDS011;57711;53.196;19.638;2023-02-04T11:38:47;29.80;;;13.10;;
68379;SDS011;57711;53.196;19.638;2023-02-04T11:41:17;12.20;;;5.40;;
68379;SDS011;57711;53.196;19.638;2023-02-04T11:43:52;5.10;;;3.20;;
68379;SDS011;57711;53.196;19.638;2023-02-04T11:46:20;15.00;;;8.10;;
68379;SDS011;57711;53.196;19.638;2023-02-04T11:48:56;19.10;;;7.70;;
68379;SDS011;57711;53.196;19.638;2023-02-04T11:51:27;20.70;;;8.10;;
68379;SDS011;57711;53.196;19.638;2023-02-04T11:53:58;16.00;;;7.10;;
68379;SDS011;57711;53.196;19.638;2023-02-04T11:56:27;20.90;;;9.60;;
68379;SDS011;57711;53.196;19.638;2023-02-04T11:58:56;13.40;;;6.30;;
68379;SDS011;57711;53.196;19.638;2023-02-04T12:01:29;24.60;;;10.80;;
68379;SDS011;57711;53.196;19.638;2023-02-04T12:03:59;66.60;;;29.30;;
68379;SDS011;57711;53.196;19.638;2023-02-04T12:06:29;59.20;;;27.70;;
68379;SDS011;57711;53.196;19.638;2023-02-04T12:14:30;9.50;;;4.50;;
68379;SDS011;57711;53.196;19.638;2023-02-04T12:17:18;13.80;;;5.80;;
68379;SDS011;57711;53.196;19.638;2023-02-04T12:19:46;8.70;;;3.90;;
68379;SDS011;57711;53.196;19.638;2023-02-04T12:22:13;8.10;;;3.50;;
68379;SDS011;57711;53.196;19.638;2023-02-04T12:24:41;8.80;;;4.10;;
68379;SDS011;57711;53.196;19.638;2023-02-04T12:27:09;10.10;;;4.80;;
68379;SDS011;57711;53.196;19.638;2023-02-04T12:29:36;8.80;;;4.40;;
68379;SDS011;57711;53.196;19.638;2023-02-04T12:32:04;12.80;;;5.80;;
68379;SDS011;57711;53.196;19.638;2023-02-04T12:34:31;12.40;;;6.30;;
68379;SDS011;57711;53.196;19.638;2023-02-04T12:36:59;33.50;;;13.30;;
68379;SDS011;57711;53.196;19.638;2023-02-04T12:39:26;18.00;;;8.90;;
68379;SDS011;57711;53.196;19.638;2023-02-04T12:41:54;20.50;;;10.80;;
68379;SDS011;57711;53.196;19.638;2023-02-04T12:44:21;24.30;;;12.10;;
68379;SDS011;57711;53.196;19.638;2023-02-04T12:46:48;24.00;;;12.60;;
68379;SDS011;57711;53.196;19.638;2023-02-04T12:49:15;41.00;;;19.90;;
68379;SDS011;57711;53.196;19.638;2023-02-04T12:51:43;58.10;;;29.10;;
68379;SDS011;57711;53.196;19.638;2023-02-04T12:54:10;33.30;;;16.20;;
68379;SDS011;57711;53.196;19.638;2023-02-04T12:56:37;27.80;;;14.50;;
68379;SDS011;57711;53.196;19.638;2023-02-04T12:59:04;27.90;;;16.90;;
68379;SDS011;57711;53.196;19.638;2023-02-04T13:01:32;29.70;;;16.10;;
68379;SDS011;57711;53.196;19.638;2023-02-04T13:03:59;24.20;;;12.30;;
68379;SDS011;57711;53.196;19.638;2023-02-04T13:06:26;51.00;;;26.70;;
68379;SDS011;57711;53.196;19.638;2023-02-04T13:08:53;51.80;;;28.00;;
68379;SDS011;57711;53.196;19.638;2023-02-04T13:11:21;59.80;;;31.90;;
68379;SDS011;57711;53.196;19.638;2023-02-04T13:13:48;57.90;;;30.70;;
68379;SDS011;57711;53.196;19.638;2023-02-04T13:16:15;31.30;;;17.70;;
68379;SDS011;57711;53.196;19.638;2023-02-04T13:18:45;14.70;;;8.70;;
68379;SDS011;57711;53.196;19.638;2023-02-04T13:21:12;16.80;;;9.00;;
68379;SDS011;57711;53.196;19.638;2023-02-04T13:23:39;15.80;;;8.30;;
68379;SDS011;57711;53.196;19.638;2023-02-04T13:26:06;15.10;;;7.80;;
68379;SDS011;57711;53.196;19.638;2023-02-04T13:28:34;18.00;;;8.80;;
68379;SDS011;57711;53.196;19.638;2023-02-04T13:31:02;20.50;;;10.50;;
68379;SDS011;57711;53.196;19.638;2023-02-04T13:33:30;25.10;;;13.10;;
68379;SDS011;57711;53.196;19.638;2023-02-04T13:35:57;13.00;;;7.40;;
68379;SDS011;57711;53.196;19.638;2023-02-04T13:38:25;12.50;;;6.10;;
68379;SDS011;57711;53.196;19.638;2023-02-04T13:40:52;9.00;;;4.60;;
68379;SDS011;57711;53.196;19.638;2023-02-04T13:43:19;9.50;;;5.20;;
68379;SDS011;57711;53.196;19.638;2023-02-04T13:45:46;11.70;;;5.30;;
68379;SDS011;57711;53.196;19.638;2023-02-04T13:48:14;10.40;;;5.60;;
68379;SDS011;57711;53.196;19.638;2023-02-04T13:50:42;8.20;;;4.80;;
68379;SDS011;57711;53.196;19.638;2023-02-04T13:53:09;9.30;;;5.10;;
68379;SDS011;57711;53.196;19.638;2023-02-04T13:55:36;17.40;;;8.60;;
68379;SDS011;57711;53.196;19.638;2023-02-04T13:58:04;43.70;;;20.10;;
68379;SDS011;57711;53.196;19.638;2023-02-04T14:00:31;22.20;;;10.50;;
68379;SDS011;57711;53.196;19.638;2023-02-04T14:03:00;45.40;;;22.20;;
68379;SDS011;57711;53.196;19.638;2023-02-04T14:05:27;32.50;;;15.70;;
68379;SDS011;57711;53.196;19.638;2023-02-04T14:07:54;52.30;;;25.70;;
68379;SDS011;57711;53.196;19.638;2023-02-04T14:10:22;61.70;;;31.60;;
68379;SDS011;57711;53.196;19.638;2023-02-04T14:12:51;44.30;;;21.70;;
68379;SDS011;57711;53.196;19.638;2023-02-04T14:15:19;31.80;;;15.40;;
68379;SDS011;57711;53.196;19.638;2023-02-04T14:17:46;24.60;;;11.90;;
68379;SDS011;57711;53.196;19.638;2023-02-04T14:20:14;32.10;;;16.40;;
68379;SDS011;57711;53.196;19.638;2023-02-04T14:22:42;31.80;;;16.80;;
68379;SDS011;57711;53.196;19.638;2023-02-04T14:25:09;27.90;;;14.40;;
68379;SDS011;57711;53.196;19.638;2023-02-04T14:27:36;41.90;;;26.00;;
68379;SDS011;57711;53.196;19.638;2023-02-04T14:30:18;34.40;;;19.70;;
68379;SDS011;57711;53.196;19.638;2023-02-04T14:32:49;30.60;;;17.10;;
68379;SDS011;57711;53.196;19.638;2023-02-04T14:35:16;14.90;;;8.80;;
68379;SDS011;57711;53.196;19.638;2023-02-04T14:37:44;23.30;;;11.90;;
68379;SDS011;57711;53.196;19.638;2023-02-04T14:40:11;29.50;;;17.40;;
68379;SDS011;57711;53.196;19.638;2023-02-04T14:42:39;28.70;;;14.20;;
68379;SDS011;57711;53.196;19.638;2023-02-04T14:45:08;105.00;;;43.70;;
68379;SDS011;57711;53.196;19.638;2023-02-04T14:47:37;54.30;;;24.40;;
68379;SDS011;57711;53.196;19.638;2023-02-04T14:50:06;88.30;;;37.20;;
68379;SDS011;57711;53.196;19.638;2023-02-04T14:52:36;92.30;;;36.90;;
68379;SDS011;57711;53.196;19.638;2023-02-04T14:55:04;114.80;;;45.70;;